Time;durP1;ratioP1;P1;durP2;ratioP2;P2;SDS_P1;SDS_P2;PMS_P1;PMS_P2;Temp;Humidity;BMP_temperature;BMP_pressure;BME280_temperature;BME280_humidity;BME280_pressure;Samples;Min_cycle;Max_cycle;Signal;HPM_P1;HPM_P2
2023/03/13 00:02:15;;;;;;;47.13;32.17;;;;;;;21.22;67.42;98951.16;4924780;29;20055;-63
2023/03/13 00:05:04;;;;;;;53.55;33.67;;;;;;;20.86;68.27;98968.78;4926540;29;20110;-63
2023/03/13 00:07:59;;;;;;;49.13;32.40;;;;;;;21.02;67.37;98972.47;4924648;29;20059;-64
2023/03/13 00:10:39;;;;;;;42.17;30.65;;;;;;;20.84;68.90;98964.75;4925316;29;20047;-62
2023/03/13 00:13:27;;;;;;;46.20;31.13;;;;;;;20.86;67.52;98965.28;4924400;29;20048;-62
2023/03/13 00:16:15;;;;;;;56.85;31.75;;;;;;;20.58;68.13;98966.28;4926390;29;20674;-62
2023/03/13 00:19:06;;;;;;;50.75;31.73;;;;;;;20.38;68.97;98966.06;4926056;29;20063;-62
2023/03/13 00:21:55;;;;;;;37.97;29.17;;;;;;;20.23;68.67;98960.41;4925896;29;20083;-63
2023/03/13 00:24:45;;;;;;;48.38;29.83;;;;;;;20.14;67.96;98949.28;4925155;29;20548;-62
2023/03/13 00:27:41;;;;;;;39.92;29.15;;;;;;;20.13;69.05;98953.06;4925011;28;20138;-62
2023/03/13 00:30:30;;;;;;;46.67;31.63;;;;;;;20.04;68.62;98966.13;4925885;29;20155;-62
2023/03/13 00:33:19;;;;;;;40.30;30.63;;;;;;;20.02;69.77;98970.91;4910664;29;20068;-63
2023/03/13 00:36:12;;;;;;;49.15;32.78;;;;;;;19.99;70.02;98957.97;4926717;29;20142;-63
2023/03/13 00:39:02;;;;;;;49.20;32.13;;;;;;;20.04;70.86;98968.81;4925581;29;20327;-62
2023/03/13 00:41:51;;;;;;;47.28;32.55;;;;;;;20.08;70.25;98964.56;4924808;29;20056;-63
2023/03/13 00:44:34;;;;;;;47.92;32.97;;;;;;;20.00;70.86;98969.53;4925583;29;20063;-61
2023/03/13 00:47:23;;;;;;;49.65;33.92;;;;;;;19.94;71.15;98970.50;4924867;29;20055;-61
2023/03/13 00:50:05;;;;;;;52.60;33.53;;;;;;;19.86;70.44;98969.06;4925784;29;20047;-62
2023/03/13 00:52:54;;;;;;;55.40;34.40;;;;;;;19.83;71.67;98974.09;4911511;29;20058;-62
2023/03/13 00:55:36;;;;;;;46.63;33.75;;;;;;;19.82;72.02;98976.00;4908116;29;20787;-62
2023/03/13 00:58:34;;;;;;;53.80;36.90;;;;;;;19.86;71.37;98968.25;4925197;29;20063;-62
2023/03/13 01:01:16;;;;;;;58.03;35.72;;;;;;;19.75;71.72;98969.94;4924047;29;20059;-61
2023/03/13 01:04:09;;;;;;;56.35;36.85;;;;;;;19.77;72.24;98969.72;4911057;29;20079;-61
2023/03/13 01:06:58;;;;;;;62.35;37.70;;;;;;;19.74;72.01;98968.31;4924659;29;20505;-61
2023/03/13 01:09:40;;;;;;;57.47;37.10;;;;;;;19.67;72.40;98973.88;4924618;29;20376;-61
2023/03/13 01:12:29;;;;;;;59.83;37.60;;;;;;;19.64;72.75;98971.69;4924299;29;20494;-62
2023/03/13 01:15:11;;;;;;;53.00;35.67;;;;;;;19.70;73.22;98980.63;4925102;29;20074;-63
2023/03/13 01:18:00;;;;;;;56.50;36.33;;;;;;;19.66;72.65;98985.66;4925174;29;20728;-62
2023/03/13 01:20:42;;;;;;;55.78;36.17;;;;;;;19.64;73.00;98984.28;4910383;29;20484;-62
2023/03/13 01:23:32;;;;;;;56.92;37.95;;;;;;;19.60;73.18;98978.59;4922932;29;20600;-63
2023/03/13 01:26:17;;;;;;;69.03;39.58;;;;;;;19.66;73.83;98982.97;4923428;29;20043;-62
2023/03/13 01:29:11;;;;;;;60.80;38.63;;;;;;;19.67;73.33;98986.50;4901472;28;20812;-62
2023/03/13 01:32:00;;;;;;;62.30;38.78;;;;;;;19.68;72.71;98977.38;4904350;29;20058;-62
2023/03/13 01:34:49;;;;;;;57.67;38.17;;;;;;;19.69;72.57;98985.16;4896993;29;20830;-63
2023/03/13 01:37:38;;;;;;;63.15;38.75;;;;;;;19.71;72.35;98982.25;4905202;29;20059;-63
2023/03/13 01:40:27;;;;;;;56.28;37.78;;;;;;;19.73;71.79;98983.66;4903401;29;20902;-63
2023/03/13 01:43:30;;;;;;;61.08;38.72;;;;;;;19.82;71.23;98983.25;4904094;29;20532;-63
2023/03/13 01:46:23;;;;;;;59.72;37.63;;;;;;;19.95;71.75;98993.66;4901304;29;20048;-62
2023/03/13 01:49:28;;;;;;;62.88;38.60;;;;;;;19.97;71.48;98989.66;4903740;29;20060;-62
2023/03/13 01:52:34;;;;;;;;;;;;;;;19.98;71.73;98998.53;4902264;29;20102;-62
2023/03/13 01:55:36;;;;;;;61.55;38.67;;;;;;;20.09;71.67;98995.72;4901250;29;19955;-62
2023/03/13 01:58:26;;;;;;;60.28;40.20;;;;;;;20.17;71.42;99007.97;4904742;29;20147;-63
2023/03/13 02:01:09;;;;;;;62.03;40.33;;;;;;;20.37;71.05;99004.78;4901288;29;20058;-62
2023/03/13 02:03:57;;;;;;;67.15;41.15;;;;;;;20.34;69.84;99013.34;4905611;29;20056;-63
2023/03/13 02:06:43;;;;;;;64.65;40.90;;;;;;;20.51;71.07;99016.81;4904273;29;20076;-63
2023/03/13 02:09:34;;;;;;;66.32;42.65;;;;;;;20.53;68.48;99018.19;4905852;29;20056;-62
2023/03/13 02:12:42;;;;;;;72.72;43.78;;;;;;;20.55;67.99;99021.44;4906199;29;20051;-62
2023/03/13 02:15:20;;;;;;;81.75;44.85;;;;;;;20.65;67.89;99034.22;4909450;29;20059;-63
2023/03/13 02:18:16;;;;;;;83.82;46.40;;;;;;;20.81;68.39;99036.03;4902777;29;20048;-63
2023/03/13 02:21:07;;;;;;;77.97;45.80;;;;;;;21.02;69.61;99037.13;4904349;29;20055;-63
2023/03/13 02:24:25;;;;;;;79.32;47.00;;;;;;;21.22;68.05;99037.38;4902574;29;20055;-63
2023/03/13 02:27:02;;;;;;;90.10;51.42;;;;;;;21.47;65.42;99037.63;4909235;29;20094;-62
2023/03/13 02:29:58;;;;;;;;;;;;;;;22.06;62.23;99036.81;4891229;29;20138;-63
2023/03/13 02:32:34;;;;;;;108.80;58.05;;;;;;;22.43;62.21;99042.19;4905379;29;19935;-63
2023/03/13 02:35:23;;;;;;;141.43;66.35;;;;;;;22.89;59.35;99040.56;4904428;29;20441;-62
2023/03/13 02:38:11;;;;;;;122.57;66.85;;;;;;;22.94;58.96;99049.50;4901226;29;20080;-62
2023/03/13 02:41:02;;;;;;;127.18;62.75;;;;;;;22.36;59.09;99051.31;4901493;29;20606;-63
2023/03/13 02:43:44;;;;;;;108.97;61.53;;;;;;;23.05;59.84;99056.59;4902893;29;20719;-63
2023/03/13 02:46:53;;;;;;;107.25;63.17;;;;;;;24.22;57.82;99063.00;4900101;29;20146;-63
2023/03/13 02:49:29;;;;;;;105.70;61.15;;;;;;;23.91;56.65;99067.59;4894417;29;20056;-63
2023/03/13 02:52:18;;;;;;;104.80;57.60;;;;;;;24.34;53.98;99076.28;4891308;29;20126;-63
2023/03/13 02:55:17;;;;;;;95.80;57.55;;;;;;;24.66;53.02;99076.75;4892048;29;20444;-63
2023/03/13 02:57:59;;;;;;;101.22;56.67;;;;;;;25.02;54.28;99080.19;4904736;29;20063;-64
2023/03/13 03:00:48;;;;;;;90.57;53.67;;;;;;;24.93;52.58;99082.66;4904879;29;20052;-63
2023/03/13 03:03:30;;;;;;;88.53;55.28;;;;;;;25.58;51.61;99088.88;4888978;29;20143;-63
2023/03/13 03:06:19;;;;;;;98.60;53.75;;;;;;;25.61;50.03;99085.63;4904618;29;20366;-63
2023/03/13 03:09:18;;;;;;;88.70;52.17;;;;;;;25.85;48.65;99096.56;4901381;29;20240;-64
2023/03/13 03:12:05;;;;;;;98.47;53.40;;;;;;;26.06;49.11;99099.97;4889005;29;20433;-61
2023/03/13 03:14:54;;;;;;;89.65;53.38;;;;;;;25.57;49.18;99098.13;4894558;29;20056;-62
2023/03/13 03:17:38;;;;;;;108.25;60.90;;;;;;;25.08;51.09;99106.19;4903431;29;20055;-61
2023/03/13 03:20:28;;;;;;;115.32;65.80;;;;;;;24.77;51.57;99101.91;4892252;29;20052;-62
2023/03/13 03:23:18;;;;;;;117.20;64.95;;;;;;;24.49;52.19;99117.69;4906336;29;20107;-61
2023/03/13 03:26:01;;;;;;;108.55;60.95;;;;;;;24.72;52.26;99123.59;4907221;29;20047;-62
2023/03/13 03:28:50;;;;;;;95.93;57.15;;;;;;;24.82;50.79;99120.88;4922191;28;20047;-62
2023/03/13 03:31:39;;;;;;;91.05;54.55;;;;;;;24.81;52.41;99124.66;4908053;29;20147;-63
2023/03/13 03:34:21;;;;;;;90.63;55.05;;;;;;;24.85;52.34;99123.03;4902287;29;20067;-63
2023/03/13 03:37:16;;;;;;;88.25;53.00;;;;;;;24.79;50.95;99130.34;4907681;29;20127;-63
2023/03/13 03:39:52;;;;;;;78.00;49.03;;;;;;;24.90;49.04;99137.41;4908261;29;20213;-63
2023/03/13 03:42:47;;;;;;;78.40;47.38;;;;;;;25.01;49.55;99135.47;4907316;29;20056;-63
2023/03/13 03:45:23;;;;;;;86.80;49.33;;;;;;;24.90;47.50;99137.41;4904990;29;20075;-62
2023/03/13 03:48:12;;;;;;;81.53;46.88;;;;;;;25.19;48.16;99136.75;4889885;29;20048;-61
2023/03/13 03:50:54;;;;;;;80.60;48.05;;;;;;;25.24;47.59;99142.16;4906382;29;20059;-62
2023/03/13 03:53:54;;;;;;;86.18;46.88;;;;;;;25.50;46.83;99136.34;4902757;29;20048;-62
2023/03/13 03:56:32;;;;;;;78.10;45.13;;;;;;;25.52;45.38;99132.56;4906319;29;20056;-62
2023/03/13 03:59:27;;;;;;;78.60;44.00;;;;;;;25.48;45.67;99138.56;4902840;29;20083;-62
2023/03/13 04:02:06;;;;;;;71.18;41.17;;;;;;;25.93;47.65;99139.41;4906479;29;20188;-63
2023/03/13 04:04:56;;;;;;;;;;;;;;;25.64;46.47;99144.72;4902904;29;20525;-62
2023/03/13 04:07:46;;;;;;;82.75;39.70;;;;;;;26.09;46.79;99143.63;4919062;29;19927;-62
2023/03/13 04:10:36;;;;;;;91.75;43.58;;;;;;;26.31;45.87;99141.31;4906223;29;20056;-62
2023/03/13 04:13:28;;;;;;;117.03;69.28;;;;;;;25.92;49.38;99148.66;4904026;29;20060;-62
2023/03/13 04:16:11;;;;;;;99.90;63.55;;;;;;;25.99;49.02;99146.41;4906243;29;20056;-62
2023/03/13 04:19:01;;;;;;;119.25;72.13;;;;;;;25.97;49.05;99148.63;4906297;29;20051;-61
2023/03/13 04:21:43;;;;;;;126.25;73.53;;;;;;;26.36;50.04;99154.88;4920999;29;20059;-61
2023/03/13 04:24:32;;;;;;;122.55;72.15;;;;;;;26.62;49.77;99150.00;4897640;29;20055;-62
2023/03/13 04:27:16;;;;;;;113.00;68.97;;;;;;;26.07;49.48;99150.47;4899890;29;20155;-61
2023/03/13 04:30:11;;;;;;;120.80;73.68;;;;;;;25.89;49.87;99152.72;4906439;28;20078;-61
2023/03/13 04:33:27;;;;;;;119.40;72.03;;;;;;;26.10;49.36;99161.56;4922771;29;20543;-61
2023/03/13 04:36:22;;;;;;;122.63;74.65;;;;;;;26.27;50.78;99161.19;4909925;29;20063;-61
2023/03/13 04:39:24;;;;;;;133.18;76.78;;;;;;;25.97;49.40;99155.94;4909608;29;20051;-62
2023/03/13 04:42:24;;;;;;;112.88;76.93;;;;;;;26.31;49.80;99154.91;4924647;29;20145;-62
2023/03/13 04:45:38;;;;;;;123.97;80.73;;;;;;;26.22;50.98;99150.34;4909298;29;20607;-62
2023/03/13 04:48:29;;;;;;;126.72;79.55;;;;;;;26.14;48.98;99149.03;4925111;29;20047;-61
2023/03/13 04:51:45;;;;;;;137.98;86.82;;;;;;;26.48;50.07;99149.03;4893680;29;20051;-62
2023/03/13 04:54:45;;;;;;;135.60;83.22;;;;;;;26.71;48.54;99145.56;4921834;29;20063;-62
2023/03/13 04:57:58;;;;;;;174.70;112.20;;;;;;;27.12;47.87;99147.91;4924068;29;20079;-62
2023/03/13 05:00:51;;;;;;;159.63;104.60;;;;;;;26.82;49.36;99147.09;4912658;29;20123;-63
2023/03/13 05:04:03;;;;;;;125.65;79.88;;;;;;;27.35;48.87;99149.78;4924936;29;20685;-63
2023/03/13 05:07:03;;;;;;;117.53;71.07;;;;;;;27.59;45.77;99144.34;4923814;29;20577;-63
2023/03/13 05:10:22;;;;;;;122.13;69.75;;;;;;;27.31;45.45;99143.28;4905981;29;20044;-62
2023/03/13 05:13:31;;;;;;;117.47;70.00;;;;;;;27.18;46.20;99144.00;4917944;29;20196;-62
2023/03/13 05:16:39;;;;;;;110.07;68.13;;;;;;;27.81;44.87;99146.47;4921324;29;20083;-65
2023/03/13 05:19:53;;;;;;;101.30;65.90;;;;;;;27.66;45.50;99147.53;4920472;29;20055;-65
2023/03/13 05:23:05;;;;;;;108.88;64.75;;;;;;;27.78;45.04;99138.91;4912868;29;20526;-62
2023/03/13 05:26:22;;;;;;;95.57;61.28;;;;;;;27.64;44.56;99139.66;4838334;29;20061;-62
2023/03/13 05:29:17;;;;;;;102.45;61.35;;;;;;;27.68;45.71;99137.13;4913348;28;20084;-62
2023/03/13 05:32:12;;;;;;;92.95;58.97;;;;;;;28.26;43.52;99132.19;4897661;29;20049;-62
2023/03/13 05:35:21;;;;;;;88.10;54.00;;;;;;;28.64;44.14;99132.09;4900750;29;20059;-62
2023/03/13 05:38:18;;;;;;;86.38;52.65;;;;;;;28.72;42.24;99134.19;4903183;29;20484;-62
2023/03/13 05:41:30;;;;;;;73.57;48.63;;;;;;;28.83;41.07;99125.50;4894889;29;20060;-63
2023/03/13 05:44:31;;;;;;;71.85;47.63;;;;;;;29.65;40.71;99124.66;4903002;29;20079;-63
2023/03/13 05:47:33;;;;;;;66.10;43.10;;;;;;;29.61;40.82;99126.41;4885930;29;20052;-66
2023/03/13 05:50:39;;;;;;;67.30;40.08;;;;;;;29.18;38.84;99118.53;4895394;29;20210;-67
2023/03/13 05:53:48;;;;;;;70.35;43.45;;;;;;;29.48;39.13;99119.03;4904724;29;20076;-66
2023/03/13 05:56:56;;;;;;;62.63;42.92;;;;;;;29.61;39.57;99116.25;4903969;29;20063;-67
2023/03/13 05:59:56;;;;;;;60.13;40.67;;;;;;;29.58;38.10;99110.63;4910611;29;20243;-67
2023/03/13 06:03:04;;;;;;;64.13;41.15;;;;;;;29.66;39.40;99109.88;4894920;29;20058;-67
2023/03/13 06:05:48;;;;;;;58.70;40.00;;;;;;;29.75;37.66;99108.03;4898145;29;20052;-67
2023/03/13 06:08:57;;;;;;;62.80;40.92;;;;;;;29.67;37.92;99106.03;4902527;29;20084;-62
2023/03/13 06:11:41;;;;;;;;;;;;;;;29.85;38.37;99100.44;4915430;29;20070;-63
2023/03/13 06:14:30;;;;;;;59.97;36.88;;;;;;;30.24;38.41;99098.97;4893536;29;19923;-63
2023/03/13 06:17:33;;;;;;;59.78;37.40;;;;;;;30.09;37.77;99097.44;4883487;29;20094;-64
2023/03/13 06:20:28;;;;;;;53.97;33.20;;;;;;;30.23;36.29;99091.88;4902563;29;20056;-63
2023/03/13 06:23:04;;;;;;;43.30;27.48;;;;;;;30.45;38.07;99077.44;4888195;29;20088;-65
2023/03/13 06:26:00;;;;;;;36.67;21.55;;;;;;;30.34;33.60;99077.66;4905797;29;20107;-66
2023/03/13 06:28:48;;;;;;;31.58;21.67;;;;;;;30.79;36.65;99080.31;4904485;29;20148;-64
2023/03/13 06:31:44;;;;;;;42.30;19.45;;;;;;;30.70;34.28;99069.34;4909270;29;20067;-64
2023/03/13 06:34:21;;;;;;;31.80;20.83;;;;;;;30.38;33.86;99064.16;4902909;29;20318;-64
2023/03/13 06:37:16;;;;;;;40.00;20.70;;;;;;;30.60;33.68;99074.28;4920995;29;20118;-64
2023/03/13 06:39:52;;;;;;;33.47;21.70;;;;;;;30.81;33.63;99058.91;4918155;29;20078;-63
2023/03/13 06:42:48;;;;;;;35.00;21.27;;;;;;;30.84;33.28;99065.69;4923946;29;20055;-63
2023/03/13 06:45:24;;;;;;;33.63;16.95;;;;;;;30.85;36.16;99061.84;4924420;29;20158;-62
2023/03/13 06:48:13;;;;;;;23.95;15.27;;;;;;;31.03;35.19;99055.31;4923223;29;20052;-63
2023/03/13 06:50:56;;;;;;;26.45;16.88;;;;;;;30.84;34.08;99050.09;4915573;29;20419;-62
2023/03/13 06:53:46;;;;;;;31.02;16.85;;;;;;;30.91;34.48;99041.41;4923169;29;20051;-66
2023/03/13 06:56:35;;;;;;;26.58;15.18;;;;;;;31.09;32.90;99029.41;4919786;29;20051;-63
2023/03/13 06:59:24;;;;;;;24.92;14.73;;;;;;;31.31;34.82;99031.22;4927765;29;20056;-65
2023/03/13 07:02:06;;;;;;;32.15;14.55;;;;;;;31.15;32.17;99028.16;4929122;29;20074;-64
2023/03/13 07:05:04;;;;;;;25.65;13.30;;;;;;;31.01;34.04;99011.88;4928354;29;20067;-65
2023/03/13 07:07:41;;;;;;;22.58;12.85;;;;;;;30.62;33.93;99000.94;4931471;29;20052;-65
2023/03/13 07:10:38;;;;;;;22.65;12.73;;;;;;;30.51;34.54;99007.81;4926973;29;20058;-65
2023/03/13 07:13:14;;;;;;;26.67;13.70;;;;;;;30.62;33.43;99003.69;4922894;29;20059;-63
2023/03/13 07:16:49;;;;;;;27.30;14.25;;;;;;;30.46;34.22;99005.22;5198582;23;20022;31
2023/03/13 07:19:33;;;;;;;24.48;12.70;;;;;;;30.67;33.13;98989.88;4865708;29;20059;-64
2023/03/13 07:22:22;;;;;;;18.00;12.68;;;;;;;30.59;37.09;98983.22;4879491;29;20120;-60
2023/03/13 07:25:04;;;;;;;22.92;13.20;;;;;;;30.55;34.79;98975.97;4883057;29;20044;-63
2023/03/13 07:27:56;;;;;;;22.80;13.00;;;;;;;30.90;33.46;98980.41;4883826;29;20714;-62
2023/03/13 07:30:38;;;;;;;28.20;14.02;;;;;;;30.89;37.24;98976.06;4880356;29;20052;-64
2023/03/13 07:33:27;;;;;;;26.10;13.00;;;;;;;30.81;36.79;98965.91;4876141;29;20059;-61
2023/03/13 07:36:11;;;;;;;22.75;14.70;;;;;;;30.94;33.66;98959.50;4878159;29;20055;-62
2023/03/13 07:39:00;;;;;;;24.42;14.82;;;;;;;30.89;35.03;98959.66;4858935;29;20108;-63
2023/03/13 07:41:42;;;;;;;32.17;14.35;;;;;;;30.89;34.38;98956.91;4899015;29;20063;-63
2023/03/13 07:44:31;;;;;;;32.15;14.82;;;;;;;30.75;34.25;98953.53;4887016;29;20056;-64
2023/03/13 07:47:13;;;;;;;22.88;12.27;;;;;;;30.79;33.11;98949.03;4882836;29;20108;-64
2023/03/13 07:50:02;;;;;;;20.67;13.32;;;;;;;30.84;34.00;98948.06;4871147;29;20045;-63
2023/03/13 07:52:45;;;;;;;29.08;13.82;;;;;;;30.81;33.17;98946.78;4879414;29;20067;-63
2023/03/13 07:55:34;;;;;;;22.67;12.43;;;;;;;30.77;34.76;98941.13;4903114;29;20368;-63
2023/03/13 07:58:16;;;;;;;19.05;12.25;;;;;;;30.88;34.72;98938.09;4890226;29;20100;-63
2023/03/13 08:01:06;;;;;;;23.95;14.10;;;;;;;30.67;34.64;98916.81;4894507;29;20506;-63
2023/03/13 08:03:53;;;;;;;21.42;13.02;;;;;;;30.63;34.67;98920.50;4889371;29;20055;-64
2023/03/13 08:06:41;;;;;;;28.63;14.05;;;;;;;30.75;35.40;98909.78;4908313;29;20048;-64
2023/03/13 08:09:23;;;;;;;25.92;13.32;;;;;;;30.63;34.39;98912.31;4907628;29;20612;-64
2023/03/13 08:12:13;;;;;;;21.67;12.52;;;;;;;30.59;35.92;98892.19;4907975;29;20059;-66
2023/03/13 08:14:56;;;;;;;24.63;13.65;;;;;;;30.74;34.99;98891.75;4908383;29;20047;-63
2023/03/13 08:17:50;;;;;;;24.30;10.32;;;;;;;30.70;34.00;98893.50;4876948;29;20109;-62
2023/03/13 08:20:39;;;;;;;16.73;9.93;;;;;;;30.69;33.78;98883.69;4903122;29;20063;-63
2023/03/13 08:23:28;;;;;;;27.50;11.10;;;;;;;30.63;34.10;98879.50;4896257;29;20713;-63
2023/03/13 08:26:16;;;;;;;23.85;9.93;;;;;;;30.56;34.12;98874.50;4875527;29;20388;-66
2023/03/13 08:29:08;;;;;;;13.68;9.65;;;;;;;30.60;34.38;98867.28;4870596;29;20117;-64
2023/03/13 08:31:51;;;;;;;17.92;9.68;;;;;;;30.60;34.92;98859.06;4900856;29;20048;-65
2023/03/13 08:34:40;;;;;;;15.52;9.73;;;;;;;30.44;36.39;98857.09;4909112;29;20044;-65
2023/03/13 08:37:22;;;;;;;21.35;9.88;;;;;;;30.33;34.75;98851.91;4908987;29;20052;-64
2023/03/13 08:40:12;;;;;;;14.70;8.90;;;;;;;30.40;33.02;98850.66;4908894;29;20638;-64
2023/03/13 08:42:54;;;;;;;16.35;9.35;;;;;;;30.49;34.61;98848.78;4904762;29;20051;-65
2023/03/13 08:45:43;;;;;;;16.42;9.45;;;;;;;30.43;33.98;98839.88;4908224;29;20040;-65
2023/03/13 08:48:25;;;;;;;21.40;10.13;;;;;;;30.50;34.91;98833.97;4907910;29;20368;-65
2023/03/13 08:51:16;;;;;;;20.00;9.38;;;;;;;30.53;34.78;98825.13;4889059;29;20044;-66
2023/03/13 08:53:58;;;;;;;19.33;8.45;;;;;;;30.39;33.04;98821.69;4909742;29;20138;-66
2023/03/13 08:56:47;;;;;;;15.75;8.85;;;;;;;30.42;34.51;98819.13;4909406;29;20086;-65
2023/03/13 08:59:29;;;;;;;22.65;9.23;;;;;;;30.49;34.00;98816.78;4908938;29;20048;-67
2023/03/13 09:02:19;;;;;;;14.32;8.32;;;;;;;30.38;33.59;98806.41;4909786;29;20052;-66
2023/03/13 09:05:15;;;;;;;12.63;9.27;;;;;;;30.31;35.15;98815.91;4908225;29;20051;-67
2023/03/13 09:07:52;;;;;;;13.55;8.13;;;;;;;30.26;35.17;98805.13;4871905;29;20377;-65
2023/03/13 09:10:47;;;;;;;15.50;8.70;;;;;;;30.23;31.21;98796.75;4873344;29;20068;-65
2023/03/13 09:13:25;;;;;;;15.18;7.00;;;;;;;30.28;31.06;98800.13;4901658;29;20070;-65
2023/03/13 09:16:25;;;;;;;12.65;6.72;;;;;;;30.29;30.28;98793.56;4909100;29;20062;-65
2023/03/13 09:19:07;;;;;;;12.15;7.53;;;;;;;30.28;31.53;98789.19;4885297;29;20041;-66
2023/03/13 09:21:56;;;;;;;12.75;8.38;;;;;;;30.23;31.35;98783.88;4873400;29;20056;-65
2023/03/13 09:24:39;;;;;;;20.08;8.32;;;;;;;30.16;32.65;98772.63;4871549;29;20132;-67
2023/03/13 09:27:28;;;;;;;12.75;7.40;;;;;;;30.23;31.42;98772.16;4875044;29;20715;-66
2023/03/13 09:30:11;;;;;;;15.23;7.88;;;;;;;30.15;32.11;98767.47;4862018;29;20049;-65
2023/03/13 09:32:59;;;;;;;18.85;8.60;;;;;;;30.23;30.87;98769.41;4889446;29;20083;-67
2023/03/13 09:35:42;;;;;;;24.42;9.55;;;;;;;30.28;33.28;98764.59;4875155;29;20052;-66
2023/03/13 09:38:31;;;;;;;22.02;8.57;;;;;;;30.29;32.38;98752.56;4878539;29;20077;-66
2023/03/13 09:41:39;;;;;;;14.55;8.38;;;;;;;30.30;31.18;98754.19;4882581;29;20057;-65
2023/03/13 09:44:41;;;;;;;11.10;7.45;;;;;;;30.29;31.30;98752.56;4877670;29;20059;-66
2023/03/13 09:47:41;;;;;;;15.68;9.45;;;;;;;30.13;31.31;98745.97;4884618;29;20060;-66
2023/03/13 09:50:39;;;;;;;17.38;11.10;;;;;;;30.13;32.51;98750.63;4869712;29;20059;-66
2023/03/13 09:53:52;;;;;;;18.48;10.13;;;;;;;30.16;32.15;98733.56;4882619;29;20061;-65
2023/03/13 09:57:02;;;;;;;15.88;8.98;;;;;;;30.16;30.49;98734.38;4853148;29;20077;-67
2023/03/13 10:00:00;;;;;;;19.90;10.95;;;;;;;30.18;32.06;98734.84;4889317;29;20059;-65
2023/03/13 10:03:18;;;;;;;18.17;9.85;;;;;;;30.12;31.96;98732.59;4884774;29;20059;-65
2023/03/13 10:06:28;;;;;;;28.67;10.30;;;;;;;30.03;32.73;98727.13;4884578;29;20056;-66
2023/03/13 10:09:39;;;;;;;22.10;9.35;;;;;;;30.04;32.38;98723.28;4870358;29;20049;-65
2023/03/13 10:12:28;;;;;;;13.13;8.00;;;;;;;30.01;31.33;98723.09;4876312;29;20048;-67
2023/03/13 10:15:48;;;;;;;22.00;9.68;;;;;;;30.06;31.90;98720.22;4872065;29;20508;-65
2023/03/13 10:18:32;;;;;;;14.27;9.87;;;;;;;30.01;32.63;98723.09;4883215;29;20058;-66
2023/03/13 10:21:24;;;;;;;25.77;11.48;;;;;;;29.94;34.15;98720.84;4898658;29;21114;-67
2023/03/13 10:24:37;;;;;;;18.52;9.77;;;;;;;29.78;31.45;98711.47;4908362;29;20067;-65
2023/03/13 10:27:25;;;;;;;12.50;7.57;;;;;;;29.63;32.50;98711.91;4884839;29;20060;-67
2023/03/13 10:30:19;;;;;;;15.50;10.05;;;;;;;29.46;33.78;98701.75;4902102;29;20040;-66
2023/03/13 10:33:14;;;;;;;29.70;10.27;;;;;;;29.41;34.69;98705.41;4871539;29;20045;-69
2023/03/13 10:36:14;;;;;;;17.30;10.35;;;;;;;29.41;34.06;98704.63;4911076;29;20056;-67
2023/03/13 10:39:03;;;;;;;20.30;9.70;;;;;;;29.40;33.71;98701.06;4910987;29;20073;-69
2023/03/13 10:41:47;;;;;;;18.00;8.90;;;;;;;29.34;34.17;98710.50;4911403;29;20056;-66
2023/03/13 10:44:38;;;;;;;17.58;8.38;;;;;;;29.30;33.71;98703.28;4890763;29;20040;-66
2023/03/13 10:47:20;;;;;;;22.65;8.60;;;;;;;29.25;33.75;98698.75;4890436;29;20658;-66
2023/03/13 10:50:10;;;;;;;17.40;8.23;;;;;;;29.21;33.35;98699.69;4894180;29;20048;-67
2023/03/13 10:52:54;;;;;;;17.17;8.63;;;;;;;29.14;34.89;98700.13;4886916;29;20053;-66
2023/03/13 10:55:49;;;;;;;18.17;8.32;;;;;;;29.08;34.12;98700.59;4906553;29;20075;-66
2023/03/13 10:58:41;;;;;;;19.00;7.30;;;;;;;29.05;34.70;98696.56;4896011;29;20048;-66
2023/03/13 11:01:46;;;;;;;15.40;6.97;;;;;;;29.06;33.44;98700.91;4901761;29;20048;-65
2023/03/13 11:04:33;;;;;;;14.43;7.70;;;;;;;29.04;33.86;98692.22;4900952;29;20072;-66
2023/03/13 11:07:27;;;;;;;19.23;9.15;;;;;;;29.02;33.85;98689.00;4909726;29;20056;-67
2023/03/13 11:10:22;;;;;;;14.75;8.75;;;;;;;28.97;35.29;98689.94;4911567;29;20508;-67
2023/03/13 11:13:11;;;;;;;21.35;9.88;;;;;;;28.98;35.92;98680.66;4909465;29;20060;-67
2023/03/13 11:16:12;;;;;;;20.38;9.35;;;;;;;28.90;35.87;98684.13;4898483;29;20144;-69
2023/03/13 11:19:13;;;;;;;27.98;10.63;;;;;;;28.75;35.14;98678.28;4874109;29;20045;-67
2023/03/13 11:22:14;;;;;;;18.42;9.02;;;;;;;28.73;37.12;98678.56;4886418;29;20093;-67
2023/03/13 11:25:26;;;;;;;18.38;9.00;;;;;;;28.68;36.89;98675.16;4878412;29;20064;-66
2023/03/13 11:28:13;;;;;;;17.92;10.00;;;;;;;28.63;37.54;98675.28;4873491;29;20060;-69
2023/03/13 11:31:11;;;;;;;21.02;10.88;;;;;;;28.55;38.30;98672.16;4873284;29;20061;-67
2023/03/13 11:34:14;;;;;;;19.92;9.30;;;;;;;28.55;37.75;98674.09;4843660;29;20109;-69
2023/03/13 11:37:18;;;;;;;20.75;10.27;;;;;;;28.61;37.82;98666.59;4869401;29;20045;-66
2023/03/13 11:40:20;;;;;;;24.13;10.43;;;;;;;28.55;38.94;98672.16;4873486;29;20069;-66
2023/03/13 11:43:25;;;;;;;16.50;9.68;;;;;;;28.54;38.09;98667.84;4887967;29;20088;-67
2023/03/13 11:46:56;;;;;;;15.48;9.73;;;;;;;28.47;38.30;98661.22;4870521;29;20425;-67
2023/03/13 11:50:02;;;;;;;27.95;9.82;;;;;;;28.43;38.65;98662.94;4848898;29;20054;-67
2023/03/13 11:53:02;;;;;;;21.08;9.60;;;;;;;28.40;39.28;98658.94;4876869;29;20052;-67
2023/03/13 11:56:16;;;;;;;22.90;10.57;;;;;;;28.32;37.31;98662.41;4886179;29;20662;-67
2023/03/13 11:59:19;;;;;;;22.33;8.20;;;;;;;28.26;37.63;98662.81;4880632;29;20057;-68
2023/03/13 12:02:23;;;;;;;15.38;8.40;;;;;;;28.18;39.38;98667.09;4872854;29;20057;-70
2023/03/13 12:05:14;;;;;;;19.17;8.18;;;;;;;28.09;37.31;98664.28;4863554;29;20053;-68
2023/03/13 12:08:16;;;;;;;18.75;8.82;;;;;;;28.02;37.46;98665.78;4877743;29;20429;-67
2023/03/13 12:11:30;;;;;;;9.80;6.72;;;;;;;27.99;35.53;98664.50;4852555;29;20085;-66
2023/03/13 12:14:35;;;;;;;15.85;7.70;;;;;;;27.93;35.89;98670.34;4874940;29;20076;-66
2023/03/13 12:17:46;;;;;;;15.82;6.80;;;;;;;27.89;35.31;98675.59;4866267;29;20053;-68
2023/03/13 12:20:52;;;;;;;13.02;6.80;;;;;;;27.79;36.25;98678.56;4886871;29;20117;-67
2023/03/13 12:23:54;;;;;;;15.82;6.85;;;;;;;27.69;35.19;98665.97;4843175;29;20133;-67
2023/03/13 12:27:06;;;;;;;17.00;7.85;;;;;;;27.65;36.40;98672.34;4857204;29;20053;-66
2023/03/13 12:30:23;;;;;;;8.93;6.90;;;;;;;27.56;34.82;98674.97;4878140;29;20072;-66
2023/03/13 12:33:23;;;;;;;14.45;6.65;;;;;;;27.47;35.90;98673.22;4881946;29;20101;-68
2023/03/13 12:36:25;;;;;;;15.40;6.60;;;;;;;27.50;34.29;98667.19;4881893;29;20068;-67
2023/03/13 12:39:52;;;;;;;16.70;7.45;;;;;;;27.46;35.23;98675.13;4869414;29;20049;-67
2023/03/13 12:43:17;;;;;;;14.30;8.07;;;;;;;27.40;36.52;98678.25;4830617;29;20050;-66
2023/03/13 12:46:06;;;;;;;25.42;9.80;;;;;;;27.37;37.37;98681.59;4890157;29;20505;-68
2023/03/13 12:48:57;;;;;;;20.40;9.05;;;;;;;27.29;37.95;98680.38;4890038;29;20147;-68
2023/03/13 12:51:57;;;;;;;18.80;8.82;;;;;;;27.19;39.24;98681.38;4878663;29;20132;-68
2023/03/13 12:54:51;;;;;;;21.55;9.07;;;;;;;27.14;39.96;98686.91;4878239;29;20041;-67
2023/03/13 12:58:06;;;;;;;18.30;9.35;;;;;;;27.03;41.27;98692.84;4895679;29;20047;-66
2023/03/13 13:00:57;;;;;;;20.42;9.45;;;;;;;26.93;40.83;98690.31;4895520;29;20551;-66
2023/03/13 13:03:51;;;;;;;17.33;9.35;;;;;;;26.86;41.08;98696.16;4883429;29;20060;-67
2023/03/13 13:07:07;;;;;;;19.40;10.00;;;;;;;26.87;42.44;98699.66;4886112;29;20037;-67
2023/03/13 13:10:25;;;;;;;18.65;11.15;;;;;;;26.76;42.93;98697.09;4885273;29;20054;-66
2023/03/13 13:13:24;;;;;;;16.55;10.85;;;;;;;26.66;44.51;98699.97;4883815;29;20423;-66
2023/03/13 13:16:16;;;;;;;26.92;11.43;;;;;;;26.70;44.78;98700.19;4884576;29;20128;-66
2023/03/13 13:19:31;;;;;;;21.70;9.85;;;;;;;26.63;45.14;98695.16;4868542;29;20821;-66
2023/03/13 13:22:37;;;;;;;22.05;11.30;;;;;;;26.51;47.43;98694.00;4859413;29;20053;-69